Time;durP1;ratioP1;P1;durP2;ratioP2;P2;SDS_P1;SDS_P2;PMS_P1;PMS_P2;Temp;Humidity;BMP_temperature;BMP_pressure;BME280_temperature;BME280_humidity;BME280_pressure;Samples;Min_cycle;Max_cycle;Signal;HPM_P1;HPM_P2
2021/07/05 00:00:25;;;;;;;22.58;19.15;;;17.20;99.90;;;;;;5074779;28;20127;-78
2021/07/05 00:02:52;;;;;;;20.58;18.48;;;17.20;99.90;;;;;;5081737;28;20125;-76
2021/07/05 00:05:18;;;;;;;25.05;19.65;;;17.20;99.90;;;;;;5080677;28;20039;-77
2021/07/05 00:07:48;;;;;;;24.60;20.30;;;17.20;99.90;;;;;;5084825;28;20034;-77
2021/07/05 00:10:19;;;;;;;23.88;19.67;;;17.20;99.90;;;;;;5083122;28;20036;-77
2021/07/05 00:12:46;;;;;;;28.77;21.40;;;17.20;99.90;;;;;;5075807;28;20044;-76
2021/07/05 00:15:14;;;;;;;23.33;19.73;;;17.30;99.90;;;;;;5079182;28;20036;-76
2021/07/05 00:18:27;;;;;;;21.92;18.33;;;17.30;99.90;;;;;;5097315;27;20107;-77
2021/07/05 00:20:54;;;;;;;25.55;20.15;;;17.20;99.90;;;;;;5062936;28;20039;-78
2021/07/05 00:23:20;;;;;;;23.55;17.80;;;17.20;99.90;;;;;;5044339;28;20574;-78
2021/07/05 00:25:49;;;;;;;20.40;16.77;;;17.20;99.90;;;;;;5080396;28;20086;-76
2021/07/05 00:28:16;;;;;;;;;;;17.20;99.90;;;;;;5084585;28;20059;-76
2021/07/05 00:30:42;;;;;;;18.55;14.10;;;17.30;99.90;;;;;;5042721;28;20013;-76
2021/07/05 00:33:08;;;;;;;18.70;15.85;;;17.30;99.90;;;;;;5054564;28;20127;-76
2021/07/05 00:35:36;;;;;;;19.17;14.77;;;17.30;99.90;;;;;;5074702;28;20036;-75
2021/07/05 00:38:02;;;;;;;17.70;14.35;;;17.20;99.90;;;;;;5052043;28;20109;-77
2021/07/05 00:40:29;;;;;;;16.02;14.30;;;17.20;99.90;;;;;;5061043;28;20036;-77
2021/07/05 00:42:55;;;;;;;15.50;13.90;;;17.20;99.90;;;;;;5073193;28;20032;-75
2021/07/05 00:45:23;;;;;;;14.43;12.80;;;17.20;99.90;;;;;;5074717;28;20047;-76
2021/07/05 00:47:49;;;;;;;14.48;12.50;;;17.20;99.90;;;;;;5041786;28;20085;-77
2021/07/05 00:50:18;;;;;;;14.23;12.15;;;17.20;99.90;;;;;;5058656;28;20059;-76
2021/07/05 00:52:45;;;;;;;13.43;11.65;;;17.20;99.90;;;;;;5043066;28;20048;-75
2021/07/05 00:55:13;;;;;;;17.63;12.98;;;17.10;99.90;;;;;;5059338;28;20040;-77
2021/07/05 00:57:40;;;;;;;13.60;11.75;;;17.10;99.90;;;;;;5065266;28;20043;-75
2021/07/05 01:00:12;;;;;;;16.88;12.77;;;17.10;99.90;;;;;;5048876;28;20120;-76
2021/07/05 01:02:39;;;;;;;12.48;11.18;;;17.00;99.90;;;;;;5064769;28;20124;-75
2021/07/05 01:05:09;;;;;;;14.63;12.57;;;17.00;99.90;;;;;;5078489;28;20033;-76
2021/07/05 01:07:36;;;;;;;14.68;12.60;;;17.00;99.90;;;;;;5048872;28;20080;-76
2021/07/05 01:10:03;;;;;;;18.38;13.70;;;17.00;99.90;;;;;;5069699;28;20028;-78
2021/07/05 01:12:29;;;;;;;14.07;12.55;;;16.90;99.90;;;;;;5080889;28;20499;-76
2021/07/05 01:14:55;;;;;;;14.80;12.18;;;16.90;99.90;;;;;;5069276;28;20040;-75
2021/07/05 01:17:21;;;;;;;16.25;13.52;;;16.90;99.90;;;;;;5049934;28;20443;-77
2021/07/05 01:19:49;;;;;;;15.07;12.32;;;16.90;99.90;;;;;;5059728;28;20036;-77
2021/07/05 01:22:17;;;;;;;14.80;12.38;;;16.90;99.90;;;;;;5077555;28;20051;-77
2021/07/05 01:24:44;;;;;;;15.95;11.82;;;16.90;99.90;;;;;;5089385;28;20052;-76
2021/07/05 01:27:10;;;;;;;11.90;10.32;;;16.90;99.90;;;;;;5030901;28;20040;-77
2021/07/05 01:29:39;;;;;;;15.02;12.75;;;16.80;99.90;;;;;;5054062;28;20093;-76
2021/07/05 01:32:06;;;;;;;16.02;11.90;;;16.80;99.90;;;;;;5055020;28;20032;-76
2021/07/05 01:34:36;;;;;;;15.73;11.80;;;16.80;99.90;;;;;;5052753;28;20033;-76
2021/07/05 01:37:03;;;;;;;12.40;10.57;;;16.80;99.90;;;;;;5055774;28;20047;-76
2021/07/05 01:39:32;;;;;;;;;;;16.80;99.90;;;;;;5032172;28;20033;-76
2021/07/05 01:41:58;;;;;;;16.17;11.35;;;16.80;99.90;;;;;;5048892;28;20147;-75
2021/07/05 01:44:24;;;;;;;13.52;11.18;;;16.70;99.90;;;;;;5053063;28;20112;-76
2021/07/05 01:46:50;;;;;;;13.00;10.52;;;16.70;99.90;;;;;;5050497;28;20043;-76
2021/07/05 01:49:16;;;;;;;13.30;10.85;;;16.70;99.90;;;;;;5049483;28;20044;-77
2021/07/05 01:51:42;;;;;;;22.10;13.88;;;16.70;99.90;;;;;;5035124;28;20047;-77
2021/07/05 01:54:13;;;;;;;19.75;13.95;;;16.70;99.90;;;;;;5043058;28;20735;-76
2021/07/05 01:56:39;;;;;;;24.27;16.20;;;16.70;99.90;;;;;;5035940;28;20239;-76
2021/07/05 01:59:05;;;;;;;26.42;16.25;;;16.70;99.90;;;;;;5033089;28;20299;-76
2021/07/05 02:01:31;;;;;;;28.38;17.35;;;16.60;99.90;;;;;;5029579;28;20044;-76
2021/07/05 02:03:58;;;;;;;30.83;17.65;;;16.60;99.90;;;;;;4996493;28;20057;-76
2021/07/05 02:06:24;;;;;;;34.67;17.83;;;16.60;99.90;;;;;;5030069;28;20033;-76
2021/07/05 02:08:51;;;;;;;30.50;17.48;;;16.60;99.90;;;;;;5028188;28;20071;-76
2021/07/05 02:11:17;;;;;;;23.20;15.77;;;16.50;99.90;;;;;;5037003;28;20292;-76
2021/07/05 02:13:45;;;;;;;33.58;18.65;;;16.50;99.90;;;;;;5055235;28;20638;-76
2021/07/05 02:16:12;;;;;;;26.45;16.00;;;16.40;99.90;;;;;;5011204;28;20040;-76
2021/07/05 02:18:38;;;;;;;32.20;17.55;;;16.40;99.90;;;;;;5022027;28;20049;-75
2021/07/05 02:21:06;;;;;;;25.02;17.50;;;16.40;99.90;;;;;;5029498;28;20633;-83
2021/07/05 02:23:37;;;;;;;26.80;17.55;;;16.40;99.90;;;;;;5031895;28;20044;-81
2021/07/05 02:26:06;;;;;;;23.30;17.33;;;16.40;99.90;;;;;;5039226;28;20098;-83
2021/07/05 02:28:37;;;;;;;33.63;19.70;;;16.40;99.90;;;;;;5025776;28;20037;-81
2021/07/05 02:31:09;;;;;;;27.77;18.55;;;16.40;99.90;;;;;;5036015;28;20044;-83
2021/07/05 02:33:37;;;;;;;26.35;18.10;;;16.40;99.90;;;;;;5044131;28;20049;-75
2021/07/05 02:36:08;;;;;;;29.52;20.25;;;16.40;99.90;;;;;;5036390;28;20036;-76
2021/07/05 02:38:34;;;;;;;34.17;20.60;;;16.40;99.90;;;;;;5006349;28;20079;-76
2021/07/05 02:41:02;;;;;;;32.30;20.45;;;16.40;99.90;;;;;;5055769;28;20098;-77
2021/07/05 02:43:28;;;;;;;26.58;19.15;;;16.30;99.90;;;;;;5046597;28;20036;-77
2021/07/05 02:45:57;;;;;;;33.03;20.58;;;16.30;99.90;;;;;;5045386;28;20037;-78
2021/07/05 02:48:26;;;;;;;38.80;24.13;;;16.40;99.90;;;;;;5027747;28;20142;-78
2021/07/05 02:50:58;;;;;;;43.97;25.33;;;16.30;99.90;;;;;;5035495;28;20048;-77
2021/07/05 02:53:28;;;;;;;32.00;21.75;;;16.30;99.90;;;;;;5052843;28;20037;-77
2021/07/05 02:55:54;;;;;;;28.33;20.20;;;16.30;99.90;;;;;;5055692;28;20032;-76
2021/07/05 02:58:20;;;;;;;46.28;26.88;;;16.30;99.90;;;;;;5034563;28;20851;-76
2021/07/05 03:00:50;;;;;;;34.85;24.65;;;16.30;99.90;;;;;;5032902;28;20033;-78
2021/07/05 03:03:16;;;;;;;;;;;16.30;99.90;;;;;;5036433;28;20045;-78
2021/07/05 03:05:42;;;;;;;46.55;29.00;;;16.30;99.90;;;;;;5033951;28;19920;-76
2021/07/05 03:08:08;;;;;;;45.83;30.70;;;16.30;99.90;;;;;;5025142;28;20065;-77
2021/07/05 03:10:37;;;;;;;48.03;30.63;;;16.30;99.90;;;;;;5023649;28;20041;-75
2021/07/05 03:13:05;;;;;;;49.80;31.85;;;16.20;99.90;;;;;;5035153;28;20515;-77
2021/07/05 03:15:32;;;;;;;46.90;32.55;;;16.20;99.90;;;;;;5054053;28;20501;-79
2021/07/05 03:17:59;;;;;;;51.63;33.25;;;16.10;99.90;;;;;;5030004;28;20077;-76
2021/07/05 03:20:29;;;;;;;55.38;34.47;;;16.10;99.90;;;;;;5063640;28;20044;-76
2021/07/05 03:22:57;;;;;;;51.83;34.47;;;16.10;99.90;;;;;;5058880;28;20066;-79
2021/07/05 03:25:28;;;;;;;63.00;38.25;;;16.10;99.90;;;;;;5040599;28;20040;-77
2021/07/05 03:27:55;;;;;;;59.78;36.72;;;16.10;99.90;;;;;;5041030;28;20068;-78
2021/07/05 03:30:23;;;;;;;65.57;36.67;;;16.00;99.90;;;;;;5030515;28;20033;-76
2021/07/05 03:32:50;;;;;;;68.90;37.28;;;16.00;99.90;;;;;;5030977;28;20045;-76
2021/07/05 03:35:17;;;;;;;53.13;35.22;;;16.00;99.90;;;;;;5017553;28;20048;-76
2021/07/05 03:37:43;;;;;;;59.28;36.05;;;16.00;99.90;;;;;;5011955;28;20036;-76
2021/07/05 03:40:12;;;;;;;59.53;35.25;;;16.00;99.90;;;;;;5036717;28;20047;-77
2021/07/05 03:42:39;;;;;;;64.45;36.83;;;16.00;99.90;;;;;;5044605;28;20039;-76
2021/07/05 03:45:09;;;;;;;47.80;32.25;;;16.00;99.90;;;;;;5029434;28;20037;-77
2021/07/05 03:47:36;;;;;;;42.10;30.45;;;16.00;99.90;;;;;;5025162;28;20120;-77
2021/07/05 03:50:07;;;;;;;54.25;33.53;;;16.10;99.90;;;;;;5013752;28;20049;-77
2021/07/05 03:52:33;;;;;;;46.45;31.83;;;16.10;99.90;;;;;;5048506;28;20040;-78
2021/07/05 03:54:59;;;;;;;42.20;30.52;;;16.10;99.90;;;;;;5024231;28;20659;-76
2021/07/05 03:57:26;;;;;;;56.00;34.60;;;16.10;99.90;;;;;;5044163;28;20040;-77
2021/07/05 03:59:57;;;;;;;43.78;32.65;;;16.10;99.90;;;;;;5055423;28;20040;-77
2021/07/05 04:02:24;;;;;;;54.65;35.22;;;16.10;99.90;;;;;;5042932;28;20037;-77
2021/07/05 04:04:50;;;;;;;51.25;34.58;;;16.10;99.90;;;;;;5011253;28;20044;-78
2021/07/05 04:07:18;;;;;;;52.50;35.95;;;16.10;99.90;;;;;;5045822;28;20101;-77
2021/07/05 04:09:44;;;;;;;49.35;34.78;;;16.20;99.90;;;;;;5022819;28;20120;-77
2021/07/05 04:12:12;;;;;;;43.97;33.28;;;16.20;99.90;;;;;;5044602;28;20400;-76
2021/07/05 04:14:39;;;;;;;43.08;31.40;;;16.20;99.90;;;;;;5022504;28;20506;-78
2021/07/05 04:17:06;;;;;;;45.83;34.28;;;16.30;99.90;;;;;;5013998;28;20056;-77
2021/07/05 04:19:32;;;;;;;44.03;33.70;;;16.30;99.90;;;;;;5029246;28;20049;-76
2021/07/05 04:21:59;;;;;;;44.83;33.95;;;16.30;99.90;;;;;;5017039;28;20502;-76
2021/07/05 04:24:25;;;;;;;42.88;31.77;;;16.40;99.90;;;;;;5033024;28;20124;-76
2021/07/05 04:26:52;;;;;;;44.30;32.92;;;16.40;99.90;;;;;;5017783;28;20120;-76
2021/07/05 04:29:17;;;;;;;38.17;30.00;;;16.50;99.90;;;;;;5027613;28;20433;-77
2021/07/05 04:31:43;;;;;;;40.63;30.35;;;16.60;99.90;;;;;;5033759;28;20036;-75
2021/07/05 04:34:09;;;;;;;42.65;31.70;;;16.60;99.90;;;;;;5040744;28;20037;-76
2021/07/05 04:36:36;;;;;;;39.08;30.85;;;16.60;99.90;;;;;;5032737;28;20047;-76
2021/07/05 04:39:07;;;;;;;42.50;32.72;;;16.60;99.90;;;;;;5031817;28;20040;-76
2021/07/05 04:41:33;;;;;;;42.67;34.08;;;16.60;99.90;;;;;;5021137;28;20115;-78
2021/07/05 04:43:59;;;;;;;40.33;31.50;;;16.60;99.90;;;;;;5021183;28;20051;-78
2021/07/05 04:46:26;;;;;;;42.53;32.85;;;16.50;99.90;;;;;;5033950;28;20241;-82
2021/07/05 04:48:54;;;;;;;41.42;31.17;;;16.60;99.90;;;;;;5040053;28;20179;-81
2021/07/05 04:51:23;;;;;;;41.95;32.17;;;16.60;99.90;;;;;;5044401;28;20731;-81
2021/07/05 04:53:53;;;;;;;36.67;28.80;;;16.60;99.90;;;;;;5038374;28;20178;-81
2021/07/05 04:56:19;;;;;;;37.78;29.73;;;16.60;99.90;;;;;;5028547;28;20570;-80
2021/07/05 04:58:45;;;;;;;37.25;29.27;;;16.60;99.90;;;;;;5006298;28;20210;-81
2021/07/05 05:01:12;;;;;;;32.90;27.60;;;16.60;99.90;;;;;;5021606;28;20044;-81
2021/07/05 05:03:39;;;;;;;37.42;29.60;;;16.60;99.90;;;;;;5026836;28;20045;-80
2021/07/05 05:06:06;;;;;;;32.70;28.48;;;16.60;99.90;;;;;;5044180;28;20079;-81
2021/07/05 05:08:32;;;;;;;36.85;28.92;;;16.60;99.90;;;;;;5056715;28;20045;-81
2021/07/05 05:11:00;;;;;;;32.08;26.38;;;16.60;99.90;;;;;;5046209;28;20381;-80
2021/07/05 05:13:28;;;;;;;32.53;25.55;;;16.70;99.90;;;;;;5060606;28;20327;-82
2021/07/05 05:15:55;;;;;;;29.13;25.40;;;16.80;99.90;;;;;;5028397;28;20048;-81
2021/07/05 05:18:21;;;;;;;32.15;26.55;;;16.80;99.90;;;;;;5043665;28;20236;-77
2021/07/05 05:20:50;;;;;;;31.45;26.40;;;16.90;99.90;;;;;;5056371;28;20036;-77
2021/07/05 05:23:17;;;;;;;28.40;24.13;;;16.90;99.90;;;;;;5026264;28;20412;-77
2021/07/05 05:25:43;;;;;;;31.20;26.02;;;16.90;99.90;;;;;;5045840;28;20044;-77
2021/07/05 05:28:10;;;;;;;29.63;25.63;;;16.90;99.90;;;;;;5051426;28;20542;-78
2021/07/05 05:30:36;;;;;;;33.17;25.65;;;17.00;99.90;;;;;;5049753;28;20124;-76
2021/07/05 05:33:02;;;;;;;32.25;25.20;;;17.00;99.90;;;;;;5018882;28;20047;-78
2021/07/05 05:35:28;;;;;;;28.50;22.85;;;17.00;99.90;;;;;;5042959;28;20388;-77
2021/07/05 05:37:56;;;;;;;26.58;23.38;;;17.00;99.90;;;;;;5035546;28;20451;-78
2021/07/05 05:40:22;;;;;;;27.27;24.33;;;16.90;99.90;;;;;;5027337;28;20044;-76
2021/07/05 05:42:48;;;;;;;27.17;24.25;;;16.90;99.90;;;;;;5006923;28;20056;-78
2021/07/05 05:45:15;;;;;;;25.48;22.80;;;16.90;99.90;;;;;;5048772;28;20055;-78
2021/07/05 05:47:41;;;;;;;24.83;22.17;;;16.80;99.90;;;;;;5046829;28;20048;-77
2021/07/05 05:50:08;;;;;;;25.05;22.35;;;16.80;99.90;;;;;;5064041;28;20139;-78
2021/07/05 05:52:34;;;;;;;22.88;20.45;;;16.80;99.90;;;;;;5044106;28;20491;-77
2021/07/05 05:55:00;;;;;;;30.50;22.00;;;16.80;99.90;;;;;;5040034;28;20120;-78
2021/07/05 05:57:27;;;;;;;27.42;23.60;;;16.80;99.90;;;;;;5015994;28;20100;-77
2021/07/05 05:59:58;;;;;;;24.98;22.30;;;16.70;99.90;;;;;;5030301;28;20040;-77
2021/07/05 06:02:25;;;;;;;23.98;21.02;;;16.70;99.90;;;;;;5022679;28;20060;-78
2021/07/05 06:04:51;;;;;;;26.85;22.73;;;16.70;99.90;;;;;;5056508;28;20040;-77
2021/07/05 06:07:18;;;;;;;29.40;25.30;;;16.70;99.90;;;;;;5062922;28;20103;-77
2021/07/05 06:09:44;;;;;;;26.13;23.30;;;16.60;99.90;;;;;;5007962;28;20045;-76
2021/07/05 06:12:10;;;;;;;27.17;24.25;;;16.60;99.90;;;;;;5030503;28;20041;-77
2021/07/05 06:14:36;;;;;;;27.05;24.27;;;16.60;99.90;;;;;;5039877;28;20063;-76
2021/07/05 06:17:03;;;;;;;30.92;26.50;;;16.60;99.90;;;;;;5031029;28;20476;-77
2021/07/05 06:19:32;;;;;;;26.80;23.55;;;16.60;99.90;;;;;;5053678;28;20061;-77
2021/07/05 06:21:58;;;;;;;27.30;24.33;;;16.60;99.90;;;;;;5038230;28;20052;-76
2021/07/05 06:24:24;;;;;;;29.17;25.35;;;16.50;99.90;;;;;;5020206;28;20029;-77
2021/07/05 06:26:50;;;;;;;33.83;26.25;;;16.50;99.90;;;;;;5012485;28;20533;-76
2021/07/05 06:29:16;;;;;;;30.70;25.70;;;16.50;99.90;;;;;;5030692;28;20135;-76
2021/07/05 06:31:42;;;;;;;28.98;24.35;;;16.50;99.90;;;;;;5034996;28;20123;-78
2021/07/05 06:34:11;;;;;;;30.58;25.05;;;16.40;99.90;;;;;;5037341;28;20076;-74
2021/07/05 06:36:38;;;;;;;22.98;20.48;;;16.40;99.90;;;;;;5036751;28;20045;-77
2021/07/05 06:39:07;;;;;;;22.83;17.75;;;16.30;99.90;;;;;;5010692;28;20060;-76
2021/07/05 06:41:33;;;;;;;19.02;15.98;;;16.30;99.90;;;;;;5051893;28;20033;-80
2021/07/05 06:43:59;;;;;;;18.63;15.50;;;16.20;99.90;;;;;;5028107;28;20033;-78
2021/07/05 06:46:25;;;;;;;17.88;13.32;;;16.10;99.90;;;;;;5037266;28;20051;-77
2021/07/05 06:48:51;;;;;;;15.30;10.95;;;16.10;99.90;;;;;;5065306;28;20093;-77
2021/07/05 06:51:17;;;;;;;12.27;9.40;;;16.00;99.90;;;;;;5020809;28;20118;-76
2021/07/05 06:53:43;;;;;;;13.95;10.32;;;15.90;99.90;;;;;;5037370;28;20029;-76
2021/07/05 06:56:09;;;;;;;11.88;7.28;;;15.80;99.90;;;;;;5026574;28;20046;-77
2021/07/05 06:58:35;;;;;;;10.60;6.05;;;15.80;99.90;;;;;;5054721;28;20041;-79
2021/07/05 07:01:02;;;;;;;14.57;7.25;;;15.70;99.90;;;;;;5048311;28;20044;-77
2021/07/05 07:03:29;;;;;;;13.05;5.43;;;15.60;99.90;;;;;;5026922;28;20438;-77
2021/07/05 07:05:55;;;;;;;9.07;5.10;;;15.60;99.90;;;;;;5036226;28;20028;-85
2021/07/05 07:08:22;;;;;;;5.78;4.45;;;15.50;99.90;;;;;;5013603;28;20055;-83
2021/07/05 07:10:48;;;;;;;9.15;4.50;;;15.50;99.90;;;;;;5053094;28;20487;-85
2021/07/05 07:13:15;;;;;;;5.75;4.28;;;15.40;99.90;;;;;;5030829;28;20111;-77
2021/07/05 07:15:46;;;;;;;8.60;4.78;;;15.40;99.90;;;;;;5016022;28;20048;-77
2021/07/05 07:20:47;;;;;;;9.48;5.47;;;15.30;99.90;;;;;;5037600;28;20045;-76
2021/07/05 07:23:13;;;;;;;6.63;4.90;;;15.30;99.90;;;;;;5030840;28;20040;-78
2021/07/05 07:25:39;;;;;;;9.88;5.53;;;15.30;99.90;;;;;;5053129;28;20032;-77
2021/07/05 07:28:05;;;;;;;11.65;5.72;;;15.30;99.90;;;;;;5052243;28;20028;-77
2021/07/05 07:30:32;;;;;;;8.35;4.93;;;15.30;99.90;;;;;;5052503;28;20041;-76
2021/07/05 07:32:58;;;;;;;10.88;4.95;;;15.30;99.90;;;;;;5032338;28;20134;-77
2021/07/05 07:35:24;;;;;;;8.90;4.85;;;15.20;99.90;;;;;;5047908;28;20484;-76
2021/07/05 07:37:51;;;;;;;9.38;5.60;;;15.20;99.90;;;;;;5047999;28;21826;-77
2021/07/05 07:40:19;;;;;;;8.90;5.65;;;15.30;99.90;;;;;;5017719;28;20052;-77
2021/07/05 07:42:46;;;;;;;11.15;6.15;;;15.30;99.90;;;;;;5054822;28;20526;-77
2021/07/05 07:45:14;;;;;;;9.90;4.78;;;15.20;99.90;;;;;;5020229;28;20049;-76
2021/07/05 07:47:43;;;;;;;8.07;4.20;;;15.20;99.90;;;;;;5053333;28;20040;-77
2021/07/05 07:50:11;;;;;;;7.95;4.15;;;15.20;99.90;;;;;;5026070;28;20044;-83
2021/07/05 07:52:38;;;;;;;9.82;4.60;;;15.20;99.90;;;;;;5038884;28;20487;-84
2021/07/05 07:55:07;;;;;;;8.35;4.43;;;15.20;99.90;;;;;;5021265;28;20083;-84
2021/07/05 07:57:34;;;;;;;7.40;3.53;;;15.20;99.90;;;;;;5050544;28;20106;-83
2021/07/05 08:00:00;;;;;;;7.03;4.30;;;15.20;99.90;;;;;;5013909;28;20511;-84
2021/07/05 08:02:29;;;;;;;10.35;4.00;;;15.20;99.90;;;;;;5049672;28;20037;-82
2021/07/05 08:04:55;;;;;;;5.75;3.88;;;15.30;99.90;;;;;;5004771;28;20134;-79
2021/07/05 08:07:21;;;;;;;7.95;4.47;;;15.40;99.90;;;;;;5019300;28;20056;-78
2021/07/05 08:09:47;;;;;;;7.60;4.30;;;15.40;99.90;;;;;;5020081;28;20433;-78
2021/07/05 08:12:13;;;;;;;7.10;4.18;;;15.50;99.90;;;;;;5031629;28;20037;-78
2021/07/05 08:14:39;;;;;;;7.78;4.90;;;15.60;99.90;;;;;;5032962;28;20041;-79
2021/07/05 08:17:05;;;;;;;7.13;3.95;;;15.70;99.90;;;;;;5039494;28;20503;-77
2021/07/05 08:19:31;;;;;;;7.93;4.03;;;15.80;99.90;;;;;;5004864;28;20747;-77
2021/07/05 08:22:00;;;;;;;9.77;4.32;;;16.00;99.90;;;;;;5008973;28;20045;-78
2021/07/05 08:24:28;;;;;;;6.95;3.83;;;16.20;99.90;;;;;;5046390;28;20037;-76
2021/07/05 08:26:54;;;;;;;6.68;4.50;;;16.30;99.90;;;;;;5036236;28;20037;-79
2021/07/05 08:29:23;;;;;;;9.75;5.28;;;16.40;99.90;;;;;;5030778;28;20041;-77
2021/07/05 08:31:50;;;;;;;7.53;5.53;;;16.50;99.90;;;;;;5037135;28;20066;-77
2021/07/05 08:34:16;;;;;;;10.77;6.15;;;16.70;99.90;;;;;;5031928;28;20535;-77
2021/07/05 08:36:42;;;;;;;10.45;6.18;;;16.80;99.90;;;;;;5013264;28;20029;-78
2021/07/05 08:39:10;;;;;;;9.88;6.50;;;16.80;99.90;;;;;;5020742;28;20036;-78
2021/07/05 08:41:36;;;;;;;9.50;6.72;;;16.90;99.90;;;;;;5044143;28;20037;-77
2021/07/05 08:44:03;;;;;;;8.20;5.93;;;16.90;99.90;;;;;;5058453;28;20048;-80
2021/07/05 08:46:31;;;;;;;9.93;7.25;;;17.00;99.90;;;;;;5031962;28;20056;-79
2021/07/05 08:49:01;;;;;;;11.63;8.73;;;17.00;99.90;;;;;;5044401;28;20043;-79
2021/07/05 08:51:27;;;;;;;15.10;9.63;;;17.00;99.90;;;;;;5050186;28;20127;-79
2021/07/05 08:53:56;;;;;;;11.73;10.00;;;16.90;99.90;;;;;;5032379;28;20045;-79
2021/07/05 08:56:22;;;;;;;15.30;10.85;;;16.90;99.90;;;;;;5048607;28;20560;-79
2021/07/05 08:58:51;;;;;;;13.00;9.85;;;16.90;99.90;;;;;;5056991;28;20071;-78
2021/07/05 09:01:18;;;;;;;16.27;12.20;;;17.00;99.90;;;;;;5062458;28;20862;-78
2021/07/05 09:03:44;;;;;;;15.73;10.57;;;17.20;99.90;;;;;;5050928;28;20037;-77
2021/07/05 09:06:17;;;;;;;14.38;10.70;;;17.30;99.90;;;;;;5020244;28;20083;-79
2021/07/05 09:09:06;;;;;;;12.85;10.55;;;17.30;99.90;;;;;;5049147;28;20048;-76
2021/07/05 09:11:40;;;;;;;13.82;11.05;;;17.30;99.90;;;;;;5037678;28;20040;-79
2021/07/05 09:14:17;;;;;;;14.85;11.32;;;17.30;99.90;;;;;;5046070;28;20193;-78
2021/07/05 09:16:44;;;;;;;14.90;11.52;;;17.10;99.90;;;;;;5043340;28;20044;-78
2021/07/05 09:19:34;;;;;;;16.50;12.90;;;17.10;99.90;;;;;;5049410;28;20179;-79
2021/07/05 09:22:02;;;;;;;17.70;14.30;;;17.20;99.90;;;;;;5045925;28;20033;-77
2021/07/05 09:24:39;;;;;;;16.13;14.40;;;17.10;99.90;;;;;;5042057;28;20039;-77
2021/07/05 09:27:14;;;;;;;17.85;15.88;;;17.10;99.90;;;;;;5056128;28;20065;-78
2021/07/05 09:29:42;;;;;;;17.30;15.43;;;17.10;99.90;;;;;;5048473;28;20071;-78
2021/07/05 09:32:11;;;;;;;18.70;15.95;;;17.10;99.90;;;;;;5047194;28;20123;-79
2021/07/05 09:34:40;;;;;;;22.25;17.08;;;17.10;99.90;;;;;;5046811;28;20054;-79
2021/07/05 09:37:31;;;;;;;20.58;16.38;;;17.20;99.90;;;;;;5059647;28;20040;-79
2021/07/05 09:40:03;;;;;;;18.33;15.77;;;17.30;99.90;;;;;;5059488;28;20416;-78
2021/07/05 09:42:50;;;;;;;20.58;17.10;;;17.30;99.90;;;;;;5043274;28;20035;-76
2021/07/05 09:45:32;;;;;;;20.85;16.02;;;17.40;99.90;;;;;;5042762;28;20045;-77
2021/07/05 09:48:19;;;;;;;18.70;16.73;;;17.60;99.90;;;;;;5045623;28;20055;-77
2021/07/05 09:50:51;;;;;;;23.08;17.60;;;18.00;99.90;;;;;;5042435;28;20512;-78
2021/07/05 09:53:40;;;;;;;21.08;17.13;;;18.10;99.20;;;;;;5058628;28;20464;-78
2021/07/05 09:56:24;;;;;;;18.85;16.85;;;18.10;98.90;;;;;;5048028;28;20414;-77
2021/07/05 09:58:56;;;;;;;21.05;18.65;;;18.10;98.20;;;;;;5038731;28;20029;-75
2021/07/05 10:01:36;;;;;;;19.52;17.17;;;18.00;98.70;;;;;;5039663;28;20041;-77
2021/07/05 10:04:10;;;;;;;18.13;16.23;;;18.00;98.90;;;;;;5018089;28;20064;-76
2021/07/05 10:06:46;;;;;;;20.23;17.27;;;17.90;98.80;;;;;;5045478;28;20045;-76
2021/07/05 10:09:17;;;;;;;19.50;16.70;;;17.90;98.60;;;;;;5050222;28;20130;-75
2021/07/05 10:11:44;;;;;;;18.23;16.27;;;17.90;98.60;;;;;;5065873;28;20033;-76
2021/07/05 10:14:15;;;;;;;18.90;15.82;;;18.00;98.80;;;;;;5053659;28;20168;-77
2021/07/05 10:16:43;;;;;;;18.88;16.83;;;18.20;98.60;;;;;;5075832;28;20050;-75
2021/07/05 10:19:11;;;;;;;21.30;16.05;;;18.30;97.50;;;;;;5038788;28;20064;-77
2021/07/05 10:21:38;;;;;;;18.52;15.77;;;18.40;98.10;;;;;;5055127;28;20400;-76
2021/07/05 10:24:05;;;;;;;19.48;15.13;;;18.50;97.70;;;;;;5028970;28;20033;-76
2021/07/05 10:26:32;;;;;;;15.90;13.57;;;18.50;97.60;;;;;;5043765;28;20110;-76
2021/07/05 10:28:59;;;;;;;16.25;13.88;;;18.60;96.90;;;;;;5026784;28;20037;-78
2021/07/05 10:31:26;;;;;;;16.85;15.15;;;18.60;96.80;;;;;;5018467;28;20582;-76
2021/07/05 10:33:59;;;;;;;20.50;14.07;;;18.70;96.80;;;;;;5042483;28;20570;-77
2021/07/05 10:36:29;;;;;;;19.63;14.00;;;18.70;96.30;;;;;;5016912;28;20050;-76
2021/07/05 10:39:00;;;;;;;20.55;15.20;;;18.70;96.20;;;;;;5047980;28;20118;-76
2021/07/05 10:41:35;;;;;;;18.27;14.27;;;18.70;96.20;;;;;;5021920;28;20052;-77
2021/07/05 10:44:05;;;;;;;16.85;13.18;;;18.70;96.30;;;;;;5047801;28;20562;-76
2021/07/05 10:46:39;;;;;;;16.33;14.15;;;18.90;96.40;;;;;;5031270;28;20033;-76
2021/07/05 10:49:07;;;;;;;18.45;14.32;;;19.00;96.10;;;;;;5044855;28;20041;-77
2021/07/05 10:51:44;;;;;;;17.92;14.05;;;19.10;95.70;;;;;;5050872;28;20041;-76
2021/07/05 10:54:11;;;;;;;14.55;12.88;;;19.20;95.60;;;;;;5034805;28;20048;-76
2021/07/05 10:56:43;;;;;;;17.50;12.40;;;19.30;95.10;;;;;;5047711;28;20056;-76
2021/07/05 10:59:12;;;;;;;17.20;13.80;;;19.60;95.30;;;;;;5055640;28;20110;-75
2021/07/05 11:01:39;;;;;;;14.52;12.38;;;19.90;94.60;;;;;;5061702;28;20051;-76
2021/07/05 11:04:33;;;;;;;17.75;13.15;;;20.00;94.20;;;;;;5033436;28;20090;-76
2021/07/05 11:07:10;;;;;;;14.10;12.65;;;20.00;93.50;;;;;;5046888;28;20094;-76
2021/07/05 11:09:56;;;;;;;14.82;12.70;;;19.80;93.10;;;;;;5062736;28;20372;-76
2021/07/05 11:12:33;;;;;;;17.15;12.63;;;19.60;93.40;;;;;;5038783;28;20071;-76
2021/07/05 11:14:59;;;;;;;13.98;11.70;;;19.50;94.00;;;;;;5037643;28;20119;-76
2021/07/05 11:17:26;;;;;;;16.75;12.95;;;19.40;94.00;;;;;;5021799;28;20766;-75
2021/07/05 11:19:54;;;;;;;15.45;12.27;;;19.30;93.90;;;;;;5038982;28;20049;-77
2021/07/05 11:22:25;;;;;;;14.43;12.93;;;19.20;94.20;;;;;;5046231;28;20082;-76
2021/07/05 11:24:55;;;;;;;15.88;12.80;;;19.10;94.00;;;;;;5035876;28;20032;-75
2021/07/05 11:27:30;;;;;;;15.95;13.80;;;19.00;94.30;;;;;;5040709;28;20044;-77
2021/07/05 11:30:17;;;;;;;15.73;14.02;;;19.00;94.40;;;;;;5049079;28;20126;-76
2021/07/05 11:32:45;;;;;;;18.50;13.40;;;19.00;94.50;;;;;;5042666;28;20040;-77
2021/07/05 11:35:39;;;;;;;15.82;14.35;;;18.90;94.60;;;;;;5054987;28;20140;-77
2021/07/05 11:38:49;;;;;;;20.88;15.15;;;18.90;95.10;;;;;;5060663;28;20052;-76
2021/07/05 11:41:18;;;;;;;;;;;19.10;95.30;;;;;;4994517;28;20915;-75
2021/07/05 11:43:58;;;;;;;15.75;14.07;;;19.40;95.30;;;;;;4972396;28;19976;-77
2021/07/05 11:46:26;;;;;;;16.47;13.10;;;19.90;95.30;;;;;;5027735;28;20577;-76
2021/07/05 11:49:01;;;;;;;13.50;10.65;;;20.40;94.70;;;;;;5032612;28;20457;-77
2021/07/05 11:51:55;;;;;;;13.63;11.18;;;20.70;93.10;;;;;;5033351;28;20032;-77
2021/07/05 11:54:34;;;;;;;20.20;12.15;;;20.90;91.80;;;;;;5053626;28;20062;-77
2021/07/05 11:57:03;;;;;;;14.20;10.75;;;21.10;92.00;;;;;;5043754;28;20044;-75
2021/07/05 11:59:31;;;;;;;14.13;11.68;;;21.10;92.00;;;;;;5030426;28;20041;-75
2021/07/05 12:02:03;;;;;;;17.75;12.88;;;21.10;92.10;;;;;;5038579;28;20056;-76
2021/07/05 12:04:34;;;;;;;16.30;11.05;;;21.10;91.60;;;;;;5045519;28;20040;-76
2021/07/05 12:07:01;;;;;;;12.88;10.80;;;21.20;90.90;;;;;;5047020;28;20042;-75
2021/07/05 12:09:32;;;;;;;14.43;12.38;;;21.30;90.50;;;;;;5063956;28;20036;-74
2021/07/05 12:12:13;;;;;;;14.60;10.23;;;21.30;91.10;;;;;;5038705;28;20144;-76
2021/07/05 12:14:41;;;;;;;15.00;10.45;;;21.50;90.70;;;;;;5039650;28;20032;-76
2021/07/05 12:17:08;;;;;;;14.48;10.10;;;21.60;90.60;;;;;;5031990;28;20041;-75
2021/07/05 12:19:37;;;;;;;12.77;9.43;;;21.70;90.40;;;;;;5063429;28;20072;-74
2021/07/05 12:22:06;;;;;;;13.35;7.72;;;21.90;90.40;;;;;;5044764;28;20037;-75
2021/07/05 12:24:38;;;;;;;12.18;8.23;;;22.10;90.30;;;;;;5039790;28;20033;-76
2021/07/05 12:27:06;;;;;;;10.77;7.88;;;22.20;87.80;;;;;;5041265;28;20127;-74
2021/07/05 12:29:46;;;;;;;10.45;7.50;;;22.20;88.30;;;;;;5057181;28;20097;-74
2021/07/05 12:32:20;;;;;;;12.32;8.05;;;22.10;89.40;;;;;;5040996;28;20682;-75
2021/07/05 12:34:48;;;;;;;10.57;7.50;;;22.10;84.20;;;;;;5043346;28;20040;-74
2021/07/05 12:37:30;;;;;;;11.00;7.82;;;21.80;84.50;;;;;;5038092;28;20037;-74
2021/07/05 12:40:17;;;;;;;9.23;6.87;;;21.50;84.80;;;;;;5036541;28;20041;-76
2021/07/05 12:42:52;;;;;;;8.30;6.60;;;21.20;84.90;;;;;;5040404;28;20550;-75